sensor_id;sensor_type;location;lat;lon;timestamp;P1;durP1;ratioP1;P2;durP2;ratioP2
26951;SDS011;14507;52.418;13.398;2022-12-20T00:00:54;39.03;;;18.67;;
26951;SDS011;14507;52.418;13.398;2022-12-20T00:03:19;43.28;;;19.20;;
26951;SDS011;14507;52.418;13.398;2022-12-20T00:05:45;40.42;;;19.58;;
26951;SDS011;14507;52.418;13.398;2022-12-20T00:08:12;37.65;;;18.92;;
26951;SDS011;14507;52.418;13.398;2022-12-20T00:10:38;37.22;;;17.48;;
26951;SDS011;14507;52.418;13.398;2022-12-20T00:13:05;42.15;;;19.80;;
26951;SDS011;14507;52.418;13.398;2022-12-20T00:15:31;40.92;;;18.75;;
26951;SDS011;14507;52.418;13.398;2022-12-20T00:17:57;40.38;;;18.77;;
26951;SDS011;14507;52.418;13.398;2022-12-20T00:20:24;45.13;;;19.77;;
26951;SDS011;14507;52.418;13.398;2022-12-20T00:22:50;38.08;;;18.10;;
26951;SDS011;14507;52.418;13.398;2022-12-20T00:25:16;37.42;;;16.85;;
26951;SDS011;14507;52.418;13.398;2022-12-20T00:27:44;41.58;;;18.55;;
26951;SDS011;14507;52.418;13.398;2022-12-20T00:30:10;42.70;;;19.30;;
26951;SDS011;14507;52.418;13.398;2022-12-20T00:32:36;37.38;;;18.38;;
26951;SDS011;14507;52.418;13.398;2022-12-20T00:35:01;37.70;;;17.75;;
26951;SDS011;14507;52.418;13.398;2022-12-20T00:37:27;34.78;;;17.05;;
26951;SDS011;14507;52.418;13.398;2022-12-20T00:39:53;37.00;;;17.90;;
26951;SDS011;14507;52.418;13.398;2022-12-20T00:42:18;35.92;;;17.45;;
26951;SDS011;14507;52.418;13.398;2022-12-20T00:44:44;39.65;;;18.27;;
26951;SDS011;14507;52.418;13.398;2022-12-20T00:47:10;40.30;;;17.60;;
26951;SDS011;14507;52.418;13.398;2022-12-20T00:49:35;33.40;;;16.73;;
26951;SDS011;14507;52.418;13.398;2022-12-20T00:52:01;35.83;;;18.08;;
26951;SDS011;14507;52.418;13.398;2022-12-20T00:54:26;35.65;;;18.20;;
26951;SDS011;14507;52.418;13.398;2022-12-20T00:56:52;36.70;;;18.55;;
26951;SDS011;14507;52.418;13.398;2022-12-20T00:59:18;38.30;;;18.35;;
26951;SDS011;14507;52.418;13.398;2022-12-20T01:01:45;34.90;;;16.88;;
26951;SDS011;14507;52.418;13.398;2022-12-20T01:04:11;34.38;;;16.88;;
26951;SDS011;14507;52.418;13.398;2022-12-20T01:06:37;35.97;;;17.77;;
26951;SDS011;14507;52.418;13.398;2022-12-20T01:09:03;38.03;;;17.52;;
26951;SDS011;14507;52.418;13.398;2022-12-20T01:11:30;42.50;;;19.02;;
26951;SDS011;14507;52.418;13.398;2022-12-20T01:13:59;32.63;;;16.42;;
26951;SDS011;14507;52.418;13.398;2022-12-20T01:16:33;31.80;;;16.17;;
26951;SDS011;14507;52.418;13.398;2022-12-20T01:19:02;34.80;;;16.55;;
26951;SDS011;14507;52.418;13.398;2022-12-20T01:21:28;37.55;;;18.25;;
26951;SDS011;14507;52.418;13.398;2022-12-20T01:23:54;33.28;;;15.63;;
26951;SDS011;14507;52.418;13.398;2022-12-20T01:26:21;40.78;;;18.10;;
26951;SDS011;14507;52.418;13.398;2022-12-20T01:28:48;36.45;;;17.25;;
26951;SDS011;14507;52.418;13.398;2022-12-20T01:31:17;34.58;;;16.67;;
26951;SDS011;14507;52.418;13.398;2022-12-20T01:33:44;34.42;;;17.52;;
26951;SDS011;14507;52.418;13.398;2022-12-20T01:36:13;35.27;;;17.20;;
26951;SDS011;14507;52.418;13.398;2022-12-20T01:38:40;36.22;;;17.83;;
26951;SDS011;14507;52.418;13.398;2022-12-20T01:41:06;35.75;;;17.25;;
26951;SDS011;14507;52.418;13.398;2022-12-20T01:43:46;38.50;;;18.45;;
26951;SDS011;14507;52.418;13.398;2022-12-20T01:46:16;35.40;;;16.70;;
26951;SDS011;14507;52.418;13.398;2022-12-20T01:48:48;33.55;;;16.15;;
26951;SDS011;14507;52.418;13.398;2022-12-20T01:51:48;35.20;;;16.38;;
26951;SDS011;14507;52.418;13.398;2022-12-20T01:54:29;36.85;;;18.17;;
26951;SDS011;14507;52.418;13.398;2022-12-20T01:57:01;33.22;;;16.90;;
26951;SDS011;14507;52.418;13.398;2022-12-20T01:59:30;33.97;;;16.23;;
26951;SDS011;14507;52.418;13.398;2022-12-20T02:01:58;29.98;;;15.80;;
26951;SDS011;14507;52.418;13.398;2022-12-20T02:04:27;31.98;;;15.48;;
26951;SDS011;14507;52.418;13.398;2022-12-20T02:06:52;30.67;;;15.98;;
26951;SDS011;14507;52.418;13.398;2022-12-20T02:09:18;31.63;;;15.55;;
26951;SDS011;14507;52.418;13.398;2022-12-20T02:25:08;30.83;;;16.02;;
26951;SDS011;14507;52.418;13.398;2022-12-20T02:30:41;36.38;;;17.15;;
26951;SDS011;14507;52.418;13.398;2022-12-20T02:33:10;31.55;;;15.88;;
26951;SDS011;14507;52.418;13.398;2022-12-20T02:35:38;31.70;;;15.77;;
26951;SDS011;14507;52.418;13.398;2022-12-20T02:38:25;30.25;;;14.73;;
26951;SDS011;14507;52.418;13.398;2022-12-20T02:43:44;31.65;;;15.27;;
26951;SDS011;14507;52.418;13.398;2022-12-20T02:46:32;31.17;;;15.55;;
26951;SDS011;14507;52.418;13.398;2022-12-20T02:49:00;29.05;;;14.82;;
26951;SDS011;14507;52.418;13.398;2022-12-20T02:51:29;30.60;;;15.13;;
26951;SDS011;14507;52.418;13.398;2022-12-20T02:53:56;35.20;;;14.73;;
26951;SDS011;14507;52.418;13.398;2022-12-20T02:56:27;34.13;;;15.95;;
26951;SDS011;14507;52.418;13.398;2022-12-20T03:01:52;28.60;;;14.70;;
26951;SDS011;14507;52.418;13.398;2022-12-20T03:04:20;28.45;;;15.27;;
26951;SDS011;14507;52.418;13.398;2022-12-20T03:07:00;29.90;;;15.23;;
26951;SDS011;14507;52.418;13.398;2022-12-20T03:09:29;30.60;;;15.20;;
26951;SDS011;14507;52.418;13.398;2022-12-20T03:11:56;31.13;;;15.93;;
26951;SDS011;14507;52.418;13.398;2022-12-20T03:14:22;30.48;;;15.00;;
26951;SDS011;14507;52.418;13.398;2022-12-20T03:16:48;30.52;;;15.30;;
26951;SDS011;14507;52.418;13.398;2022-12-20T03:19:14;33.83;;;15.95;;
26951;SDS011;14507;52.418;13.398;2022-12-20T03:21:40;27.75;;;14.80;;
26951;SDS011;14507;52.418;13.398;2022-12-20T03:24:06;30.40;;;14.88;;
26951;SDS011;14507;52.418;13.398;2022-12-20T03:26:31;32.60;;;14.88;;
26951;SDS011;14507;52.418;13.398;2022-12-20T03:28:57;28.45;;;14.70;;
26951;SDS011;14507;52.418;13.398;2022-12-20T03:31:23;30.33;;;14.82;;
26951;SDS011;14507;52.418;13.398;2022-12-20T03:33:48;34.65;;;15.82;;
26951;SDS011;14507;52.418;13.398;2022-12-20T03:36:14;32.88;;;15.75;;
26951;SDS011;14507;52.418;13.398;2022-12-20T03:38:40;30.13;;;14.73;;
26951;SDS011;14507;52.418;13.398;2022-12-20T03:41:05;31.77;;;15.38;;
26951;SDS011;14507;52.418;13.398;2022-12-20T03:43:31;31.85;;;15.05;;
26951;SDS011;14507;52.418;13.398;2022-12-20T03:45:56;29.60;;;14.63;;
26951;SDS011;14507;52.418;13.398;2022-12-20T03:48:22;30.05;;;14.07;;
26951;SDS011;14507;52.418;13.398;2022-12-20T03:50:48;29.88;;;15.35;;
26951;SDS011;14507;52.418;13.398;2022-12-20T03:53:13;28.23;;;13.95;;
26951;SDS011;14507;52.418;13.398;2022-12-20T03:55:39;29.95;;;14.13;;
26951;SDS011;14507;52.418;13.398;2022-12-20T03:58:05;28.33;;;14.10;;
26951;SDS011;14507;52.418;13.398;2022-12-20T04:00:30;29.80;;;14.13;;
26951;SDS011;14507;52.418;13.398;2022-12-20T04:02:56;29.05;;;13.63;;
26951;SDS011;14507;52.418;13.398;2022-12-20T04:05:22;28.45;;;14.45;;
26951;SDS011;14507;52.418;13.398;2022-12-20T04:07:47;28.33;;;15.00;;
26951;SDS011;14507;52.418;13.398;2022-12-20T04:10:13;28.90;;;14.35;;
26951;SDS011;14507;52.418;13.398;2022-12-20T04:12:38;27.83;;;14.32;;
26951;SDS011;14507;52.418;13.398;2022-12-20T04:15:04;30.13;;;14.65;;
26951;SDS011;14507;52.418;13.398;2022-12-20T04:17:30;30.92;;;13.85;;
26951;SDS011;14507;52.418;13.398;2022-12-20T04:19:56;33.17;;;14.93;;
26951;SDS011;14507;52.418;13.398;2022-12-20T04:22:22;31.35;;;14.98;;
26951;SDS011;14507;52.418;13.398;2022-12-20T04:24:47;29.60;;;15.00;;
26951;SDS011;14507;52.418;13.398;2022-12-20T04:27:13;29.55;;;15.25;;
26951;SDS011;14507;52.418;13.398;2022-12-20T04:29:38;29.05;;;14.93;;
26951;SDS011;14507;52.418;13.398;2022-12-20T04:32:04;28.95;;;14.75;;
26951;SDS011;14507;52.418;13.398;2022-12-20T04:34:30;32.08;;;15.15;;
26951;SDS011;14507;52.418;13.398;2022-12-20T04:36:55;27.58;;;15.13;;
26951;SDS011;14507;52.418;13.398;2022-12-20T04:39:21;29.30;;;14.30;;
26951;SDS011;14507;52.418;13.398;2022-12-20T04:41:46;30.00;;;14.52;;
26951;SDS011;14507;52.418;13.398;2022-12-20T04:44:12;27.70;;;13.70;;
26951;SDS011;14507;52.418;13.398;2022-12-20T04:46:37;29.98;;;14.60;;
26951;SDS011;14507;52.418;13.398;2022-12-20T04:49:03;30.27;;;14.07;;
26951;SDS011;14507;52.418;13.398;2022-12-20T04:51:29;30.55;;;14.55;;
26951;SDS011;14507;52.418;13.398;2022-12-20T04:53:54;31.00;;;14.65;;
26951;SDS011;14507;52.418;13.398;2022-12-20T04:56:21;30.73;;;15.45;;
26951;SDS011;14507;52.418;13.398;2022-12-20T04:58:50;27.40;;;14.40;;
26951;SDS011;14507;52.418;13.398;2022-12-20T05:01:17;29.80;;;15.20;;
26951;SDS011;14507;52.418;13.398;2022-12-20T05:03:44;28.45;;;14.88;;
26951;SDS011;14507;52.418;13.398;2022-12-20T05:06:11;26.40;;;14.23;;
26951;SDS011;14507;52.418;13.398;2022-12-20T05:08:36;27.30;;;13.82;;
26951;SDS011;14507;52.418;13.398;2022-12-20T05:11:02;28.67;;;14.40;;
26951;SDS011;14507;52.418;13.398;2022-12-20T05:13:29;29.55;;;14.30;;
26951;SDS011;14507;52.418;13.398;2022-12-20T05:15:55;34.75;;;15.38;;
26951;SDS011;14507;52.418;13.398;2022-12-20T05:18:22;28.67;;;14.80;;
26951;SDS011;14507;52.418;13.398;2022-12-20T05:20:48;26.90;;;13.32;;
26951;SDS011;14507;52.418;13.398;2022-12-20T05:23:34;30.42;;;14.32;;
26951;SDS011;14507;52.418;13.398;2022-12-20T05:26:18;26.67;;;14.15;;
26951;SDS011;14507;52.418;13.398;2022-12-20T05:28:44;24.67;;;13.52;;
26951;SDS011;14507;52.418;13.398;2022-12-20T05:31:09;27.52;;;13.90;;
26951;SDS011;14507;52.418;13.398;2022-12-20T05:33:35;30.40;;;15.30;;
26951;SDS011;14507;52.418;13.398;2022-12-20T05:36:01;27.20;;;14.63;;
26951;SDS011;14507;52.418;13.398;2022-12-20T05:38:26;31.52;;;14.95;;
26951;SDS011;14507;52.418;13.398;2022-12-20T05:40:52;29.88;;;14.52;;
26951;SDS011;14507;52.418;13.398;2022-12-20T05:43:18;24.77;;;13.55;;
26951;SDS011;14507;52.418;13.398;2022-12-20T05:45:48;29.63;;;13.85;;
26951;SDS011;14507;52.418;13.398;2022-12-20T05:48:17;29.15;;;14.60;;
26951;SDS011;14507;52.418;13.398;2022-12-20T05:50:44;32.90;;;14.50;;
26951;SDS011;14507;52.418;13.398;2022-12-20T05:53:14;27.85;;;13.88;;
26951;SDS011;14507;52.418;13.398;2022-12-20T05:55:44;33.25;;;14.90;;
26951;SDS011;14507;52.418;13.398;2022-12-20T05:58:13;25.75;;;14.63;;
26951;SDS011;14507;52.418;13.398;2022-12-20T06:00:40;29.95;;;15.90;;
26951;SDS011;14507;52.418;13.398;2022-12-20T06:03:06;29.83;;;14.07;;
26951;SDS011;14507;52.418;13.398;2022-12-20T06:05:34;27.38;;;15.18;;
26951;SDS011;14507;52.418;13.398;2022-12-20T06:08:01;25.53;;;14.37;;
26951;SDS011;14507;52.418;13.398;2022-12-20T06:10:27;29.30;;;14.75;;
26951;SDS011;14507;52.418;13.398;2022-12-20T06:12:53;31.92;;;15.77;;
26951;SDS011;14507;52.418;13.398;2022-12-20T06:15:19;26.25;;;13.80;;
26951;SDS011;14507;52.418;13.398;2022-12-20T06:17:44;29.75;;;15.27;;
26951;SDS011;14507;52.418;13.398;2022-12-20T06:20:10;30.85;;;14.13;;
26951;SDS011;14507;52.418;13.398;2022-12-20T06:22:36;26.23;;;13.90;;
26951;SDS011;14507;52.418;13.398;2022-12-20T06:25:02;29.80;;;14.65;;
26951;SDS011;14507;52.418;13.398;2022-12-20T06:27:29;29.35;;;14.27;;
26951;SDS011;14507;52.418;13.398;2022-12-20T06:29:55;30.55;;;14.43;;
26951;SDS011;14507;52.418;13.398;2022-12-20T06:32:21;28.60;;;14.27;;
26951;SDS011;14507;52.418;13.398;2022-12-20T06:34:46;28.77;;;13.98;;
26951;SDS011;14507;52.418;13.398;2022-12-20T06:37:12;31.85;;;14.95;;
26951;SDS011;14507;52.418;13.398;2022-12-20T06:39:38;34.78;;;14.98;;
26951;SDS011;14507;52.418;13.398;2022-12-20T06:42:04;28.23;;;14.13;;
26951;SDS011;14507;52.418;13.398;2022-12-20T06:44:30;28.77;;;14.55;;
26951;SDS011;14507;52.418;13.398;2022-12-20T06:46:56;27.55;;;14.52;;
26951;SDS011;14507;52.418;13.398;2022-12-20T06:49:22;31.45;;;14.02;;
26951;SDS011;14507;52.418;13.398;2022-12-20T06:51:47;29.52;;;14.55;;
26951;SDS011;14507;52.418;13.398;2022-12-20T06:54:13;29.65;;;14.93;;
26951;SDS011;14507;52.418;13.398;2022-12-20T06:56:39;29.27;;;13.88;;
26951;SDS011;14507;52.418;13.398;2022-12-20T06:59:04;30.98;;;15.07;;
26951;SDS011;14507;52.418;13.398;2022-12-20T07:01:30;27.55;;;14.55;;
26951;SDS011;14507;52.418;13.398;2022-12-20T07:03:56;27.50;;;15.00;;
26951;SDS011;14507;52.418;13.398;2022-12-20T07:06:21;33.35;;;15.57;;
26951;SDS011;14507;52.418;13.398;2022-12-20T07:08:47;31.30;;;14.75;;
26951;SDS011;14507;52.418;13.398;2022-12-20T07:11:13;32.70;;;15.85;;
26951;SDS011;14507;52.418;13.398;2022-12-20T07:13:39;35.03;;;16.27;;
26951;SDS011;14507;52.418;13.398;2022-12-20T07:16:04;28.40;;;14.35;;
26951;SDS011;14507;52.418;13.398;2022-12-20T07:18:30;28.23;;;15.18;;
26951;SDS011;14507;52.418;13.398;2022-12-20T07:21:03;35.03;;;15.98;;
26951;SDS011;14507;52.418;13.398;2022-12-20T07:23:30;32.20;;;15.38;;
26951;SDS011;14507;52.418;13.398;2022-12-20T07:25:57;32.05;;;15.32;;
26951;SDS011;14507;52.418;13.398;2022-12-20T07:28:24;29.35;;;14.93;;
26951;SDS011;14507;52.418;13.398;2022-12-20T07:30:51;31.85;;;15.35;;
26951;SDS011;14507;52.418;13.398;2022-12-20T07:33:17;30.10;;;15.55;;
26951;SDS011;14507;52.418;13.398;2022-12-20T07:35:43;31.38;;;15.63;;
26951;SDS011;14507;52.418;13.398;2022-12-20T07:38:11;33.55;;;17.23;;
26951;SDS011;14507;52.418;13.398;2022-12-20T07:40:40;32.92;;;16.58;;
26951;SDS011;14507;52.418;13.398;2022-12-20T07:43:07;36.08;;;16.25;;
26951;SDS011;14507;52.418;13.398;2022-12-20T07:45:34;32.00;;;15.60;;
26951;SDS011;14507;52.418;13.398;2022-12-20T07:48:00;33.33;;;15.98;;
26951;SDS011;14507;52.418;13.398;2022-12-20T07:50:26;33.25;;;15.75;;
26951;SDS011;14507;52.418;13.398;2022-12-20T07:52:53;35.40;;;16.60;;
26951;SDS011;14507;52.418;13.398;2022-12-20T07:55:19;35.65;;;16.02;;
26951;SDS011;14507;52.418;13.398;2022-12-20T07:57:46;34.13;;;16.13;;
26951;SDS011;14507;52.418;13.398;2022-12-20T08:00:16;32.50;;;16.15;;
26951;SDS011;14507;52.418;13.398;2022-12-20T08:02:50;30.73;;;15.80;;
26951;SDS011;14507;52.418;13.398;2022-12-20T08:05:23;33.22;;;15.55;;
26951;SDS011;14507;52.418;13.398;2022-12-20T08:07:48;32.25;;;15.73;;
26951;SDS011;14507;52.418;13.398;2022-12-20T08:10:14;32.10;;;16.75;;
26951;SDS011;14507;52.418;13.398;2022-12-20T08:12:43;36.95;;;17.30;;
26951;SDS011;14507;52.418;13.398;2022-12-20T08:15:11;32.67;;;16.48;;
26951;SDS011;14507;52.418;13.398;2022-12-20T08:17:37;36.08;;;16.95;;
26951;SDS011;14507;52.418;13.398;2022-12-20T08:20:03;37.53;;;17.02;;
26951;SDS011;14507;52.418;13.398;2022-12-20T08:22:30;37.67;;;17.30;;
26951;SDS011;14507;52.418;13.398;2022-12-20T08:24:57;35.53;;;17.05;;
26951;SDS011;14507;52.418;13.398;2022-12-20T08:27:22;36.97;;;17.10;;
26951;SDS011;14507;52.418;13.398;2022-12-20T08:29:48;35.55;;;16.73;;
26951;SDS011;14507;52.418;13.398;2022-12-20T08:32:14;35.42;;;17.15;;
26951;SDS011;14507;52.418;13.398;2022-12-20T08:34:40;33.95;;;16.38;;
26951;SDS011;14507;52.418;13.398;2022-12-20T08:37:06;34.35;;;16.65;;
26951;SDS011;14507;52.418;13.398;2022-12-20T08:39:32;35.75;;;17.50;;
26951;SDS011;14507;52.418;13.398;2022-12-20T08:41:57;33.83;;;17.15;;
26951;SDS011;14507;52.418;13.398;2022-12-20T08:44:23;34.05;;;17.30;;
26951;SDS011;14507;52.418;13.398;2022-12-20T08:46:49;37.20;;;17.13;;
26951;SDS011;14507;52.418;13.398;2022-12-20T08:49:15;34.92;;;17.23;;
26951;SDS011;14507;52.418;13.398;2022-12-20T08:51:41;34.58;;;17.25;;
26951;SDS011;14507;52.418;13.398;2022-12-20T08:54:06;38.03;;;17.23;;
26951;SDS011;14507;52.418;13.398;2022-12-20T08:56:32;33.92;;;17.58;;
26951;SDS011;14507;52.418;13.398;2022-12-20T08:58:58;35.58;;;18.60;;
26951;SDS011;14507;52.418;13.398;2022-12-20T09:01:23;32.95;;;17.58;;
26951;SDS011;14507;52.418;13.398;2022-12-20T09:03:51;35.90;;;18.17;;
26951;SDS011;14507;52.418;13.398;2022-12-20T09:06:20;42.45;;;18.70;;
26951;SDS011;14507;52.418;13.398;2022-12-20T09:08:47;35.65;;;17.58;;
26951;SDS011;14507;52.418;13.398;2022-12-20T09:11:13;39.60;;;18.33;;
26951;SDS011;14507;52.418;13.398;2022-12-20T09:13:42;35.83;;;18.35;;
26951;SDS011;14507;52.418;13.398;2022-12-20T09:16:10;39.45;;;18.13;;
26951;SDS011;14507;52.418;13.398;2022-12-20T09:18:36;34.75;;;17.60;;
26951;SDS011;14507;52.418;13.398;2022-12-20T09:21:03;39.50;;;18.67;;
26951;SDS011;14507;52.418;13.398;2022-12-20T09:23:30;34.88;;;18.38;;
26951;SDS011;14507;52.418;13.398;2022-12-20T09:26:00;36.40;;;18.67;;
26951;SDS011;14507;52.418;13.398;2022-12-20T09:28:28;33.08;;;17.23;;
26951;SDS011;14507;52.418;13.398;2022-12-20T09:31:00;34.53;;;16.65;;
26951;SDS011;14507;52.418;13.398;2022-12-20T09:33:28;34.08;;;16.75;;
26951;SDS011;14507;52.418;13.398;2022-12-20T09:35:55;35.67;;;17.25;;
26951;SDS011;14507;52.418;13.398;2022-12-20T09:38:21;36.42;;;18.23;;
26951;SDS011;14507;52.418;13.398;2022-12-20T09:40:48;32.58;;;16.40;;
26951;SDS011;14507;52.418;13.398;2022-12-20T09:43:16;35.13;;;17.83;;
26951;SDS011;14507;52.418;13.398;2022-12-20T09:45:43;32.53;;;16.92;;
26951;SDS011;14507;52.418;13.398;2022-12-20T09:48:15;30.83;;;16.70;;
26951;SDS011;14507;52.418;13.398;2022-12-20T09:57:24;32.35;;;16.58;;
26951;SDS011;14507;52.418;13.398;2022-12-20T10:01:49;35.88;;;15.82;;
26951;SDS011;14507;52.418;13.398;2022-12-20T10:04:23;34.45;;;17.13;;
26951;SDS011;14507;52.418;13.398;2022-12-20T10:06:54;30.13;;;16.30;;
26951;SDS011;14507;52.418;13.398;2022-12-20T10:09:56;34.20;;;16.05;;
26951;SDS011;14507;52.418;13.398;2022-12-20T10:26:16;29.75;;;14.77;;
26951;SDS011;14507;52.418;13.398;2022-12-20T10:28:42;34.35;;;15.57;;
26951;SDS011;14507;52.418;13.398;2022-12-20T10:31:10;30.73;;;15.23;;
26951;SDS011;14507;52.418;13.398;2022-12-20T10:33:39;30.50;;;14.40;;
26951;SDS011;14507;52.418;13.398;2022-12-20T10:38:48;26.70;;;14.30;;
26951;SDS011;14507;52.418;13.398;2022-12-20T10:41:17;29.55;;;15.18;;
26951;SDS011;14507;52.418;13.398;2022-12-20T10:43:46;29.05;;;14.27;;
26951;SDS011;14507;52.418;13.398;2022-12-20T10:46:14;30.23;;;14.65;;
26951;SDS011;14507;52.418;13.398;2022-12-20T10:48:44;30.23;;;14.05;;
26951;SDS011;14507;52.418;13.398;2022-12-20T10:51:13;27.33;;;14.00;;
26951;SDS011;14507;52.418;13.398;2022-12-20T10:53:50;28.17;;;14.30;;
26951;SDS011;14507;52.418;13.398;2022-12-20T10:56:29;30.95;;;14.43;;
26951;SDS011;14507;52.418;13.398;2022-12-20T10:59:00;25.42;;;13.65;;
26951;SDS011;14507;52.418;13.398;2022-12-20T11:01:47;31.60;;;14.80;;
26951;SDS011;14507;52.418;13.398;2022-12-20T11:04:47;28.93;;;14.53;;
26951;SDS011;14507;52.418;13.398;2022-12-20T11:07:27;25.58;;;13.70;;
26951;SDS011;14507;52.418;13.398;2022-12-20T11:09:57;27.55;;;14.07;;
26951;SDS011;14507;52.418;13.398;2022-12-20T11:12:24;27.15;;;13.82;;
26951;SDS011;14507;52.418;13.398;2022-12-20T11:14:50;27.70;;;13.68;;
26951;SDS011;14507;52.418;13.398;2022-12-20T11:17:43;30.52;;;13.93;;
26951;SDS011;14507;52.418;13.398;2022-12-20T11:52:51;31.25;;;14.82;;
26951;SDS011;14507;52.418;13.398;2022-12-20T11:55:26;22.35;;;12.38;;
26951;SDS011;14507;52.418;13.398;2022-12-20T12:00:23;27.55;;;14.18;;
26951;SDS011;14507;52.418;13.398;2022-12-20T12:07:51;25.90;;;13.00;;
26951;SDS011;14507;52.418;13.398;2022-12-20T12:10:22;27.35;;;13.55;;
26951;SDS011;14507;52.418;13.398;2022-12-20T12:15:51;25.38;;;13.13;;
26951;SDS011;14507;52.418;13.398;2022-12-20T12:18:29;25.10;;;13.00;;
26951;SDS011;14507;52.418;13.398;2022-12-20T12:29:14;27.27;;;12.93;;
26951;SDS011;14507;52.418;13.398;2022-12-20T12:31:43;27.63;;;13.85;;
26951;SDS011;14507;52.418;13.398;2022-12-20T12:37:45;24.33;;;13.10;;
26951;SDS011;14507;52.418;13.398;2022-12-20T12:43:22;26.83;;;14.52;;
26951;SDS011;14507;52.418;13.398;2022-12-20T12:45:47;28.30;;;13.55;;
26951;SDS011;14507;52.418;13.398;2022-12-20T12:48:35;28.23;;;13.77;;
26951;SDS011;14507;52.418;13.398;2022-12-20T12:51:02;27.40;;;13.75;;
26951;SDS011;14507;52.418;13.398;2022-12-20T12:53:48;30.00;;;14.02;;
26951;SDS011;14507;52.418;13.398;2022-12-20T13:01:49;29.27;;;13.85;;
26951;SDS011;14507;52.418;13.398;2022-12-20T13:06:59;25.13;;;12.88;;
26951;SDS011;14507;52.418;13.398;2022-12-20T13:11:52;28.05;;;13.80;;
26951;SDS011;14507;52.418;13.398;2022-12-20T13:16:46;24.48;;;12.40;;
26951;SDS011;14507;52.418;13.398;2022-12-20T13:19:14;26.80;;;13.77;;
26951;SDS011;14507;52.418;13.398;2022-12-20T13:21:56;25.95;;;13.35;;
26951;SDS011;14507;52.418;13.398;2022-12-20T13:29:50;26.27;;;12.15;;
26951;SDS011;14507;52.418;13.398;2022-12-20T13:32:50;25.42;;;13.30;;
26951;SDS011;14507;52.418;13.398;2022-12-20T13:37:56;25.08;;;12.98;;
26951;SDS011;14507;52.418;13.398;2022-12-20T13:40:39;24.58;;;12.52;;
26951;SDS011;14507;52.418;13.398;2022-12-20T13:43:14;26.88;;;13.25;;
26951;SDS011;14507;52.418;13.398;2022-12-20T13:45:55;25.20;;;12.43;;
26951;SDS011;14507;52.418;13.398;2022-12-20T13:48:34;25.50;;;13.65;;
26951;SDS011;14507;52.418;13.398;2022-12-20T13:51:02;26.73;;;12.10;;
26951;SDS011;14507;52.418;13.398;2022-12-20T13:53:29;26.23;;;13.35;;
26951;SDS011;14507;52.418;13.398;2022-12-20T13:55:55;26.20;;;13.35;;
26951;SDS011;14507;52.418;13.398;2022-12-20T13:58:26;24.40;;;13.13;;
26951;SDS011;14507;52.418;13.398;2022-12-20T14:01:02;28.15;;;13.02;;
26951;SDS011;14507;52.418;13.398;2022-12-20T14:03:29;25.92;;;12.55;;
26951;SDS011;14507;52.418;13.398;2022-12-20T14:06:08;24.58;;;13.07;;
26951;SDS011;14507;52.418;13.398;2022-12-20T14:08:42;27.65;;;13.40;;
26951;SDS011;14507;52.418;13.398;2022-12-20T14:11:15;27.85;;;13.38;;
26951;SDS011;14507;52.418;13.398;2022-12-20T14:13:54;31.03;;;15.20;;
26951;SDS011;14507;52.418;13.398;2022-12-20T14:16:29;29.02;;;14.18;;
26951;SDS011;14507;52.418;13.398;2022-12-20T14:21:22;26.98;;;14.05;;
26951;SDS011;14507;52.418;13.398;2022-12-20T14:23:50;30.97;;;14.47;;
26951;SDS011;14507;52.418;13.398;2022-12-20T14:26:19;28.60;;;14.68;;
26951;SDS011;14507;52.418;13.398;2022-12-20T14:28:49;25.25;;;13.82;;
26951;SDS011;14507;52.418;13.398;2022-12-20T14:31:23;28.65;;;14.15;;
26951;SDS011;14507;52.418;13.398;2022-12-20T14:34:02;28.20;;;14.63;;
26951;SDS011;14507;52.418;13.398;2022-12-20T14:36:35;29.50;;;14.95;;
26951;SDS011;14507;52.418;13.398;2022-12-20T14:39:28;32.88;;;15.60;;
26951;SDS011;14507;52.418;13.398;2022-12-20T14:47:03;34.08;;;15.50;;
26951;SDS011;14507;52.418;13.398;2022-12-20T14:49:58;33.65;;;15.98;;
26951;SDS011;14507;52.418;13.398;2022-12-20T14:54:59;29.92;;;14.77;;
26951;SDS011;14507;52.418;13.398;2022-12-20T14:57:44;30.08;;;15.18;;
26951;SDS011;14507;52.418;13.398;2022-12-20T15:08:10;33.00;;;15.77;;
26951;SDS011;14507;52.418;13.398;2022-12-20T15:10:46;31.48;;;15.50;;
26951;SDS011;14507;52.418;13.398;2022-12-20T15:16:19;31.90;;;15.75;;
26951;SDS011;14507;52.418;13.398;2022-12-20T15:18:52;31.80;;;15.85;;
26951;SDS011;14507;52.418;13.398;2022-12-20T15:21:25;30.05;;;14.88;;
26951;SDS011;14507;52.418;13.398;2022-12-20T15:24:00;30.63;;;15.68;;
26951;SDS011;14507;52.418;13.398;2022-12-20T15:26:27;31.30;;;15.65;;
26951;SDS011;14507;52.418;13.398;2022-12-20T15:28:55;35.00;;;15.80;;
26951;SDS011;14507;52.418;13.398;2022-12-20T15:31:21;36.78;;;17.25;;
26951;SDS011;14507;52.418;13.398;2022-12-20T15:33:48;34.03;;;16.63;;
26951;SDS011;14507;52.418;13.398;2022-12-20T15:36:23;36.70;;;17.10;;
26951;SDS011;14507;52.418;13.398;2022-12-20T15:38:53;33.25;;;16.65;;
26951;SDS011;14507;52.418;13.398;2022-12-20T15:41:21;36.13;;;16.20;;
26951;SDS011;14507;52.418;13.398;2022-12-20T15:43:53;35.72;;;15.85;;
26951;SDS011;14507;52.418;13.398;2022-12-20T15:46:29;34.05;;;16.30;;
26951;SDS011;14507;52.418;13.398;2022-12-20T15:48:55;33.53;;;16.55;;
26951;SDS011;14507;52.418;13.398;2022-12-20T15:51:30;35.63;;;16.85;;
26951;SDS011;14507;52.418;13.398;2022-12-20T15:53:56;37.33;;;16.83;;
26951;SDS011;14507;52.418;13.398;2022-12-20T15:56:23;38.20;;;17.23;;
26951;SDS011;14507;52.418;13.398;2022-12-20T15:58:50;37.38;;;17.33;;
26951;SDS011;14507;52.418;13.398;2022-12-20T16:04:15;34.10;;;15.82;;
26951;SDS011;14507;52.418;13.398;2022-12-20T16:06:43;35.85;;;18.05;;
26951;SDS011;14507;52.418;13.398;2022-12-20T16:09:10;34.70;;;16.35;;
26951;SDS011;14507;52.418;13.398;2022-12-20T16:11:36;33.95;;;16.70;;
26951;SDS011;14507;52.418;13.398;2022-12-20T16:14:02;35.05;;;17.17;;
26951;SDS011;14507;52.418;13.398;2022-12-20T16:16:32;34.28;;;16.35;;
26951;SDS011;14507;52.418;13.398;2022-12-20T16:19:00;37.30;;;17.08;;
26951;SDS011;14507;52.418;13.398;2022-12-20T16:21:31;39.63;;;17.20;;
26951;SDS011;14507;52.418;13.398;2022-12-20T16:23:58;31.88;;;16.33;;
26951;SDS011;14507;52.418;13.398;2022-12-20T16:26:25;37.58;;;18.00;;
26951;SDS011;14507;52.418;13.398;2022-12-20T16:28:52;33.65;;;17.05;;
26951;SDS011;14507;52.418;13.398;2022-12-20T16:31:29;37.35;;;17.42;;
26951;SDS011;14507;52.418;13.398;2022-12-20T16:34:00;36.47;;;17.98;;
26951;SDS011;14507;52.418;13.398;2022-12-20T16:36:30;35.50;;;18.40;;
26951;SDS011;14507;52.418;13.398;2022-12-20T16:38:57;43.78;;;19.08;;
26951;SDS011;14507;52.418;13.398;2022-12-20T16:41:24;37.10;;;17.88;;
26951;SDS011;14507;52.418;13.398;2022-12-20T16:43:51;37.17;;;18.15;;
26951;SDS011;14507;52.418;13.398;2022-12-20T16:46:19;40.28;;;19.30;;
26951;SDS011;14507;52.418;13.398;2022-12-20T16:48:46;37.72;;;18.35;;